Olympia — WTT6483 — position and weather

sailwx.info

Track history (hours):
 
Tides and Currents Weather Stations Pressure Air Temp Water Temp Dewpoint Dewpoint Depression Visibility Wind Speed Wind Dir Waves Ship Positions

Olympia

Owner: SALMON FALLS TRAWLER INC, SOUTH BERWICK, ME. More information available from US FCC via Universal Licensing System and Coast Guard Vessel Documentation Center.

Last reported at 2018-May-09 18:58 UTC. Time now 2018-Jun-24 22:35 UTC.
Position N 42°21' W 071°02'.
Warning: this ship's position is 46 days out of date.

Length 27 m.

Type: Fishing. MMSI: 367135520.

Date/timePositionNaut miles runAvg speedWind from/ knotsBaromVisibWave heightAir tempDewpointWater temp
2018-May-09 18:58N 42°21' W 071°02'0 0.3
2018-May-09 18:30N 42°21' W 071°02'0 0.1
2018-May-09 18:00N 42°21' W 071°02'0 0.0
2018-May-09 17:30N 42°21' W 071°02'0 0.0
2018-May-09 17:01N 42°21' W 071°02'0 0.0
2018-May-09 16:31N 42°21' W 071°02'0 0.0
2018-May-09 16:00N 42°21' W 071°02'0 0.0
2018-May-09 15:30N 42°21' W 071°02'0 0.0
2018-May-09 15:01N 42°21' W 071°02'0 0.0
2018-May-09 14:30N 42°21' W 071°02'0 0.0
2018-May-09 14:01N 42°21' W 071°02'0 0.0
2018-May-09 13:30N 42°21' W 071°02'0 0.0
2018-May-09 13:00N 42°21' W 071°02'0 0.0
2018-May-09 12:30N 42°21' W 071°02'0 0.0
2018-May-09 12:00N 42°21' W 071°02'0 0.0
2018-May-09 11:31N 42°21' W 071°02'0 0.0
2018-May-09 11:00N 42°21' W 071°02'0 0.0
2018-May-09 10:31N 42°21' W 071°02'0 0.0
2018-May-09 10:01N 42°21' W 071°02'0 0.0
2018-May-09 09:30N 42°21' W 071°02'0 0.0
2018-May-09 09:00N 42°21' W 071°02'0 0.0
2018-May-09 08:30N 42°21' W 071°02'0 0.0
2018-May-09 08:01N 42°21' W 071°02'0 0.0
2018-May-09 07:31N 42°21' W 071°02'0 0.0
2018-May-09 07:00N 42°21' W 071°02'0 0.0
2018-May-09 06:30N 42°21' W 071°02'0 0.0
2018-May-09 06:00N 42°21' W 071°02'0 0.0
2018-May-09 05:30N 42°21' W 071°02'0 0.0
2018-May-09 05:00N 42°21' W 071°02'0 0.0
2018-May-09 04:30N 42°21' W 071°02'0 0.0
2018-May-09 04:00N 42°21' W 071°02'0 0.0
2018-May-09 03:30N 42°21' W 071°02'0 0.0
2018-May-09 03:01N 42°21' W 071°02'0 0.0
2018-May-09 02:30N 42°21' W 071°02'0 0.0
2018-May-09 02:00N 42°21' W 071°02'0 0.0
2018-May-09 01:31N 42°21' W 071°02'0 0.0
2018-May-09 01:01N 42°21' W 071°02'0 0.0
2018-May-09 00:30N 42°21' W 071°02'0 0.0
2018-May-09 00:00N 42°21' W 071°02'0 0.0
2018-May-08 23:30N 42°21' W 071°02'0 0.0
2018-May-08 23:00N 42°21' W 071°02'0 0.0
2018-May-08 22:30N 42°21' W 071°02'0 0.0
2018-May-08 22:00N 42°21' W 071°02'0 0.0
2018-May-08 21:30N 42°21' W 071°02'0 0.0
2018-May-08 21:00N 42°21' W 071°02'0 0.0
2018-May-08 20:31N 42°21' W 071°02'0 0.0
2018-May-08 20:00N 42°21' W 071°02'2 4.3
2018-May-08 19:30N 42°20' W 070°60'4 8.8
2018-May-08 19:00N 42°19' W 070°54'4 8.5
2018-May-08 18:30N 42°19' W 070°48'4 8.4
2018-May-08 18:00N 42°19' W 070°43'4 8.2
2018-May-08 17:30N 42°19' W 070°37'4 8.0
2018-May-08 17:00N 42°19' W 070°32'5 7.8
2018-May-08 16:23N 42°19' W 070°25'3 7.8
2018-May-08 16:00N 42°18' W 070°21'4 7.7
2018-May-08 15:30N 42°18' W 070°16'4 7.6
2018-May-08 15:00N 42°18' W 070°11'4 7.8
2018-May-08 14:30N 42°18' W 070°05'4 8.5
2018-May-08 14:00N 42°18' W 069°60'4 7.7
2018-May-08 13:27N 42°19' W 069°54'1 2.3
2018-May-08 13:00N 42°19' W 069°53'4 2.2
2018-May-08 11:10N 42°23' W 069°51'7 3.1
2018-May-08 08:45N 42°30' W 069°50'1 3.2
2018-May-08 08:30N 42°31' W 069°50'2 3.1
2018-May-08 08:00N 42°32' W 069°51'2 3.9
2018-May-08 07:30N 42°34' W 069°50'1 0.8
2018-May-08 06:26N 42°34' W 069°49'5 3.0
2018-May-08 04:51N 42°30' W 069°45'2 3.0
2018-May-08 04:06N 42°28' W 069°43'1 3.0
2018-May-08 03:43N 42°28' W 069°42'1 2.9
2018-May-08 03:23N 42°27' W 069°41'1 2.9
2018-May-08 02:56N 42°27' W 069°39'1 2.8
2018-May-08 02:30N 42°26' W 069°38'2 2.9
2018-May-08 01:57N 42°25' W 069°36'1 2.1
2018-May-08 01:24N 42°24' W 069°35'1 2.3
2018-May-08 01:00N 42°25' W 069°34'1 2.5
2018-May-08 00:30N 42°24' W 069°33'2 3.1
2018-May-08 00:00N 42°22' W 069°32'2 3.1
2018-May-07 23:30N 42°20' W 069°33'2 3.0
2018-May-07 23:00N 42°19' W 069°32'1 3.0
2018-May-07 22:30N 42°18' W 069°32'2 4.9
2018-May-07 22:00N 42°18' W 069°28'1 2.5
2018-May-07 21:31N 42°18' W 069°27'2 3.0
2018-May-07 20:59N 42°16' W 069°26'  
2018-May-02 06:38N 42°36' W 069°06'1 7.4
2018-May-02 06:30N 42°36' W 069°08'4 7.2
2018-May-02 06:00N 42°35' W 069°12'34 7.5
2018-May-02 01:31N 42°27' W 069°57'1 7.7
2018-May-02 01:21N 42°27' W 069°58'3 7.5
2018-May-02 01:00N 42°26' W 070°02'4 7.4
2018-May-02 00:30N 42°25' W 070°07'4 7.5
2018-May-02 00:00N 42°25' W 070°12'4 7.8
2018-May-01 23:30N 42°24' W 070°17'4 7.8
2018-May-01 23:00N 42°23' W 070°22'4 7.9
2018-May-01 22:30N 42°22' W 070°27'4 7.9
2018-May-01 22:00N 42°21' W 070°32'4 7.7
2018-May-01 21:30N 42°21' W 070°37'4 7.8
2018-May-01 21:00N 42°20' W 070°43'4 7.9
2018-May-01 20:30N 42°19' W 070°48'4 8.1
2018-May-01 20:00N 42°19' W 070°53'  
Track history (hours):
 
Tides and Currents Weather Stations Pressure Air Temp Water Temp Dewpoint Dewpoint Depression Visibility Wind Speed Wind Dir Waves Ship Positions

Olympia

Owner: SALMON FALLS TRAWLER INC, SOUTH BERWICK, ME. More information available from US FCC via Universal Licensing System and Coast Guard Vessel Documentation Center.

Last reported at 2018-May-09 18:58 UTC. Time now 2018-Jun-24 22:35 UTC.
Position N 42°21' W 071°02'.
Warning: this ship's position is 46 days out of date.

Length 27 m.

Type: Fishing. MMSI: 367135520.

Date/timePositionNaut miles runAvg speedWind from/ knotsBaromVisibWave heightAir tempDewpointWater temp
2018-May-09 18:58N 42°21' W 071°02'0 0.3
2018-May-09 18:30N 42°21' W 071°02'0 0.1
2018-May-09 18:00N 42°21' W 071°02'0 0.0
2018-May-09 17:30N 42°21' W 071°02'0 0.0
2018-May-09 17:01N 42°21' W 071°02'0 0.0
2018-May-09 16:31N 42°21' W 071°02'0 0.0
2018-May-09 16:00N 42°21' W 071°02'0 0.0
2018-May-09 15:30N 42°21' W 071°02'0 0.0
2018-May-09 15:01N 42°21' W 071°02'0 0.0
2018-May-09 14:30N 42°21' W 071°02'0 0.0
2018-May-09 14:01N 42°21' W 071°02'0 0.0
2018-May-09 13:30N 42°21' W 071°02'0 0.0
2018-May-09 13:00N 42°21' W 071°02'0 0.0
2018-May-09 12:30N 42°21' W 071°02'0 0.0
2018-May-09 12:00N 42°21' W 071°02'0 0.0
2018-May-09 11:31N 42°21' W 071°02'0 0.0
2018-May-09 11:00N 42°21' W 071°02'0 0.0
2018-May-09 10:31N 42°21' W 071°02'0 0.0
2018-May-09 10:01N 42°21' W 071°02'0 0.0
2018-May-09 09:30N 42°21' W 071°02'0 0.0
2018-May-09 09:00N 42°21' W 071°02'0 0.0
2018-May-09 08:30N 42°21' W 071°02'0 0.0
2018-May-09 08:01N 42°21' W 071°02'0 0.0
2018-May-09 07:31N 42°21' W 071°02'0 0.0
2018-May-09 07:00N 42°21' W 071°02'0 0.0
2018-May-09 06:30N 42°21' W 071°02'0 0.0
2018-May-09 06:00N 42°21' W 071°02'0 0.0
2018-May-09 05:30N 42°21' W 071°02'0 0.0
2018-May-09 05:00N 42°21' W 071°02'0 0.0
2018-May-09 04:30N 42°21' W 071°02'0 0.0
2018-May-09 04:00N 42°21' W 071°02'0 0.0
2018-May-09 03:30N 42°21' W 071°02'0 0.0
2018-May-09 03:01N 42°21' W 071°02'0 0.0
2018-May-09 02:30N 42°21' W 071°02'0 0.0
2018-May-09 02:00N 42°21' W 071°02'0 0.0
2018-May-09 01:31N 42°21' W 071°02'0 0.0
2018-May-09 01:01N 42°21' W 071°02'0 0.0
2018-May-09 00:30N 42°21' W 071°02'0 0.0
2018-May-09 00:00N 42°21' W 071°02'0 0.0
2018-May-08 23:30N 42°21' W 071°02'0 0.0
2018-May-08 23:00N 42°21' W 071°02'0 0.0
2018-May-08 22:30N 42°21' W 071°02'0 0.0
2018-May-08 22:00N 42°21' W 071°02'0 0.0
2018-May-08 21:30N 42°21' W 071°02'0 0.0
2018-May-08 21:00N 42°21' W 071°02'0 0.0
2018-May-08 20:31N 42°21' W 071°02'0 0.0
2018-May-08 20:00N 42°21' W 071°02'2 4.3
2018-May-08 19:30N 42°20' W 070°60'4 8.8
2018-May-08 19:00N 42°19' W 070°54'4 8.5
2018-May-08 18:30N 42°19' W 070°48'4 8.4
2018-May-08 18:00N 42°19' W 070°43'4 8.2
2018-May-08 17:30N 42°19' W 070°37'4 8.0
2018-May-08 17:00N 42°19' W 070°32'5 7.8
2018-May-08 16:23N 42°19' W 070°25'3 7.8
2018-May-08 16:00N 42°18' W 070°21'4 7.7
2018-May-08 15:30N 42°18' W 070°16'4 7.6
2018-May-08 15:00N 42°18' W 070°11'4 7.8
2018-May-08 14:30N 42°18' W 070°05'4 8.5
2018-May-08 14:00N 42°18' W 069°60'4 7.7
2018-May-08 13:27N 42°19' W 069°54'1 2.3
2018-May-08 13:00N 42°19' W 069°53'4 2.2
2018-May-08 11:10N 42°23' W 069°51'7 3.1
2018-May-08 08:45N 42°30' W 069°50'1 3.2
2018-May-08 08:30N 42°31' W 069°50'2 3.1
2018-May-08 08:00N 42°32' W 069°51'2 3.9
2018-May-08 07:30N 42°34' W 069°50'1 0.8
2018-May-08 06:26N 42°34' W 069°49'5 3.0
2018-May-08 04:51N 42°30' W 069°45'2 3.0
2018-May-08 04:06N 42°28' W 069°43'1 3.0
2018-May-08 03:43N 42°28' W 069°42'1 2.9
2018-May-08 03:23N 42°27' W 069°41'1 2.9
2018-May-08 02:56N 42°27' W 069°39'1 2.8
2018-May-08 02:30N 42°26' W 069°38'2 2.9
2018-May-08 01:57N 42°25' W 069°36'1 2.1
2018-May-08 01:24N 42°24' W 069°35'1 2.3
2018-May-08 01:00N 42°25' W 069°34'1 2.5
2018-May-08 00:30N 42°24' W 069°33'2 3.1
2018-May-08 00:00N 42°22' W 069°32'2 3.1
2018-May-07 23:30N 42°20' W 069°33'2 3.0
2018-May-07 23:00N 42°19' W 069°32'1 3.0
2018-May-07 22:30N 42°18' W 069°32'2 4.9
2018-May-07 22:00N 42°18' W 069°28'1 2.5
2018-May-07 21:31N 42°18' W 069°27'2 3.0
2018-May-07 20:59N 42°16' W 069°26'  
2018-May-02 06:38N 42°36' W 069°06'1 7.4
2018-May-02 06:30N 42°36' W 069°08'4 7.2
2018-May-02 06:00N 42°35' W 069°12'34 7.5
2018-May-02 01:31N 42°27' W 069°57'1 7.7
2018-May-02 01:21N 42°27' W 069°58'3 7.5
2018-May-02 01:00N 42°26' W 070°02'4 7.4
2018-May-02 00:30N 42°25' W 070°07'4 7.5
2018-May-02 00:00N 42°25' W 070°12'4 7.8
2018-May-01 23:30N 42°24' W 070°17'4 7.8
2018-May-01 23:00N 42°23' W 070°22'4 7.9
2018-May-01 22:30N 42°22' W 070°27'4 7.9
2018-May-01 22:00N 42°21' W 070°32'4 7.7
2018-May-01 21:30N 42°21' W 070°37'4 7.8
2018-May-01 21:00N 42°20' W 070°43'4 7.9
2018-May-01 20:30N 42°19' W 070°48'4 8.1
2018-May-01 20:00N 42°19' W 070°53'  

Dump ship's entire track history